createdAt,value
2023-05-05T00:02:13.117Z,45.3
2023-05-05T00:08:18.660Z,45.3
2023-05-05T00:14:24.390Z,45.3
2023-05-05T00:20:30.005Z,45.3
2023-05-05T00:26:35.330Z,45.3
2023-05-05T00:32:41.291Z,45.2
2023-05-05T00:38:47.105Z,45.2
2023-05-05T00:44:52.533Z,45.2
2023-05-05T00:50:58.237Z,45.2
2023-05-05T00:57:03.987Z,45.2
2023-05-05T01:03:10.286Z,45.2
2023-05-05T01:09:16.011Z,45.2
2023-05-05T01:15:22.176Z,45.2
2023-05-05T01:21:27.986Z,45.2
2023-05-05T01:27:33.307Z,45.2
2023-05-05T01:33:39.083Z,45.2
2023-05-05T01:39:44.092Z,45.2
2023-05-05T01:45:49.656Z,45.2
2023-05-05T01:51:55.184Z,45.2
2023-05-05T01:58:01.369Z,45.2
2023-05-05T02:04:07.146Z,45.2
2023-05-05T02:10:12.984Z,45.3
2023-05-05T02:16:18.148Z,45.3
2023-05-05T02:22:23.839Z,45.3
2023-05-05T02:28:29.853Z,45.3
2023-05-05T02:34:35.473Z,45.3
2023-05-05T02:40:41.243Z,45.3
2023-05-05T02:46:46.683Z,45.4
2023-05-05T02:52:51.932Z,45.3
2023-05-05T02:58:57.570Z,45.4
2023-05-05T03:05:03.499Z,45.4
2023-05-05T03:11:09.253Z,45.4
2023-05-05T03:17:14.688Z,45.4
2023-05-05T03:23:20.891Z,45.5
2023-05-05T03:29:26.204Z,45.5
2023-05-05T03:35:31.826Z,45.5
2023-05-05T03:41:36.937Z,45.5
2023-05-05T03:47:42.974Z,45.5
2023-05-05T03:53:48.484Z,45.5
2023-05-05T03:59:53.836Z,45.5
2023-05-05T04:05:59.630Z,45.6
2023-05-05T04:12:05.866Z,45.5
2023-05-05T04:18:11.400Z,45.6
2023-05-05T04:24:17.217Z,45.5
2023-05-05T04:30:23.221Z,45.5
2023-05-05T04:36:28.701Z,45.5
2023-05-05T04:42:34.160Z,45.5
2023-05-05T04:48:39.670Z,45.5
2023-05-05T04:54:45.237Z,45.4
2023-05-05T05:00:50.807Z,45.4
2023-05-05T05:06:59.011Z,45.4
2023-05-05T05:13:04.877Z,45.5
2023-05-05T05:19:10.437Z,45.6
2023-05-05T05:25:16.178Z,45.5
2023-05-05T05:31:22.406Z,45.4
2023-05-05T05:37:27.937Z,45.3
2023-05-05T05:43:33.769Z,45.4
2023-05-05T05:49:39.477Z,45.3
2023-05-05T05:55:45.062Z,45.4
2023-05-05T06:01:51.091Z,44
2023-05-05T06:07:56.611Z,45.4
2023-05-05T06:14:02.386Z,45.5
2023-05-05T06:20:08.100Z,45.1
2023-05-05T06:26:13.947Z,42.6
2023-05-05T06:32:19.995Z,45
2023-05-05T06:38:25.702Z,45.1
2023-05-05T06:44:31.099Z,45.3
2023-05-05T06:50:36.692Z,42.9
2023-05-05T06:56:42.632Z,41.4
2023-05-05T07:02:48.443Z,41.1
2023-05-05T07:08:54.025Z,41.7
2023-05-05T07:15:00.016Z,42.7
2023-05-05T07:21:07.380Z,42.9
2023-05-05T07:27:13.179Z,43
2023-05-05T07:33:19.196Z,43.2
2023-05-05T07:39:24.916Z,43.4
2023-05-05T07:45:30.083Z,43.4
2023-05-05T07:51:38.107Z,43.5
2023-05-05T07:57:43.517Z,43.5
2023-05-05T08:03:49.486Z,43.5
2023-05-05T08:09:55.086Z,43.6
2023-05-05T08:16:00.632Z,43.6
2023-05-05T08:22:05.610Z,43.5
2023-05-05T08:28:11.950Z,43.6
2023-05-05T08:34:18.130Z,43.6
2023-05-05T08:40:23.366Z,43.6
2023-05-05T08:46:29.079Z,43.6
2023-05-05T08:52:34.748Z,43.6
2023-05-05T08:58:40.637Z,43.7
2023-05-05T09:04:46.400Z,43.7
2023-05-05T09:10:52.403Z,43.7
2023-05-05T09:16:57.973Z,43.6
2023-05-05T09:23:03.391Z,43.7
2023-05-05T09:29:08.718Z,43.6
2023-05-05T09:35:13.853Z,43.7
2023-05-05T09:41:19.704Z,43.7
2023-05-05T09:47:32.946Z,43.7
2023-05-05T09:53:39.899Z,44.3
2023-05-05T09:59:45.816Z,44.5
2023-05-05T10:05:50.992Z,44.6
2023-05-05T10:11:56.554Z,44
2023-05-05T10:18:10.822Z,44.4
2023-05-05T10:24:15.872Z,44.6
2023-05-05T10:30:21.270Z,44.6
2023-05-05T10:36:27.201Z,45.1
2023-05-05T10:42:32.632Z,45
2023-05-05T10:48:38.015Z,45.1
2023-05-05T10:54:43.305Z,45.5
2023-05-05T11:00:48.760Z,46.1
2023-05-05T11:06:53.871Z,46.3
2023-05-05T11:12:59.682Z,46.4
2023-05-05T11:19:05.205Z,45.9
2023-05-05T11:25:10.588Z,46
2023-05-05T11:31:16.201Z,46.2
2023-05-05T11:37:22.117Z,46.2
2023-05-05T11:43:28.097Z,46.3
2023-05-05T11:49:33.672Z,46.6
2023-05-05T11:55:39.039Z,46.8
2023-05-05T12:01:44.461Z,47
2023-05-05T12:07:49.846Z,46.9
2023-05-05T12:13:55.538Z,47.1
2023-05-05T12:20:01.130Z,47.3
2023-05-05T12:26:06.160Z,47.8
2023-05-05T12:32:11.423Z,48.1
2023-05-05T12:38:16.691Z,48.2
2023-05-05T12:44:22.805Z,48.4
2023-05-05T12:50:28.397Z,48.8
2023-05-05T12:56:33.756Z,49.1
2023-05-05T13:02:39.837Z,49.3
2023-05-05T13:08:45.500Z,49.6
2023-05-05T13:14:51.387Z,49.6
2023-05-05T13:20:57.294Z,49.9
2023-05-05T13:27:02.295Z,50.1
2023-05-05T13:33:07.901Z,50.1
2023-05-05T13:39:13.433Z,50.2
2023-05-05T13:45:18.933Z,50.3
2023-05-05T13:51:24.946Z,50.4
2023-05-05T13:57:30.241Z,50.6
2023-05-05T14:03:36.300Z,50.8
2023-05-05T14:09:41.737Z,50.8
2023-05-05T14:15:47.210Z,50.7
2023-05-05T14:21:52.611Z,50.7
2023-05-05T14:27:58.150Z,50.8
2023-05-05T14:34:04.163Z,50.9
2023-05-05T14:40:09.919Z,50.9
2023-05-05T14:46:15.923Z,51
2023-05-05T14:52:21.696Z,51
2023-05-05T14:58:26.697Z,51
2023-05-05T15:04:31.999Z,51
2023-05-05T15:10:38.041Z,51.1
2023-05-05T15:16:43.986Z,51
2023-05-05T15:22:51.031Z,50.9
2023-05-05T15:28:56.540Z,51
2023-05-05T15:35:02.390Z,51
2023-05-05T15:41:07.691Z,50.8
2023-05-05T15:47:13.349Z,50.7
2023-05-05T15:53:18.660Z,50.7
2023-05-05T15:59:24.031Z,50.9
2023-05-05T16:05:30.050Z,50.9
2023-05-05T16:11:35.563Z,50.8
2023-05-05T16:17:40.964Z,50.8
2023-05-05T16:23:46.516Z,50.7
2023-05-05T16:29:51.506Z,50.6
2023-05-05T16:35:56.832Z,50.6
2023-05-05T16:42:03.061Z,50.7
2023-05-05T16:48:11.518Z,50.7
2023-05-05T16:54:17.012Z,50.7
2023-05-05T17:00:23.418Z,50.6
2023-05-05T17:06:28.652Z,50.6
2023-05-05T17:12:34.171Z,50.6
2023-05-05T17:18:39.405Z,50.5
2023-05-05T17:24:45.150Z,50.4
2023-05-05T17:30:50.279Z,50.3
2023-05-05T17:36:56.100Z,50.2
2023-05-05T17:43:01.753Z,50.2
2023-05-05T17:49:07.383Z,50.1
2023-05-05T17:55:13.228Z,50.1
2023-05-05T18:01:18.812Z,50.1
2023-05-05T18:07:24.574Z,50
2023-05-05T18:13:29.950Z,50
2023-05-05T18:19:35.652Z,50
2023-05-05T18:25:41.866Z,49.9
2023-05-05T18:31:47.935Z,49.9
2023-05-05T18:37:53.606Z,49.8
2023-05-05T18:43:58.961Z,49.8
2023-05-05T18:50:04.961Z,49.6
2023-05-05T18:56:11.158Z,49.5
2023-05-05T19:02:16.391Z,49.6
2023-05-05T19:08:22.717Z,49.5
2023-05-05T19:14:28.502Z,49.5
2023-05-05T19:20:34.866Z,49.2
2023-05-05T19:26:40.866Z,49
2023-05-05T19:32:46.709Z,48.7
2023-05-05T19:38:52.386Z,48.4
2023-05-05T19:44:58.641Z,48.2
2023-05-05T19:51:04.600Z,48
2023-05-05T19:57:10.546Z,47.9
2023-05-05T20:03:16.611Z,48.2
2023-05-05T20:09:22.722Z,48
2023-05-05T20:15:28.863Z,48.5
2023-05-05T20:21:34.914Z,48.5
2023-05-05T20:27:40.552Z,47.4
2023-05-05T20:33:46.881Z,47.4
2023-05-05T20:39:52.430Z,47
2023-05-05T20:45:58.060Z,47.1
2023-05-05T20:52:02.831Z,47.1
2023-05-05T20:58:08.329Z,46.9
2023-05-05T21:04:13.544Z,46.8
2023-05-05T21:10:19.070Z,47
2023-05-05T21:16:25.468Z,46.9
2023-05-05T21:22:30.488Z,46.9
2023-05-05T21:28:35.804Z,47
2023-05-05T21:34:41.560Z,46.9
2023-05-05T21:40:47.565Z,47
2023-05-05T21:46:52.923Z,47
2023-05-05T21:52:58.345Z,47
2023-05-05T21:59:03.308Z,47
2023-05-05T22:05:08.873Z,47
2023-05-05T22:11:14.404Z,47
2023-05-05T22:17:19.970Z,46.9
2023-05-05T22:23:25.601Z,46.9
2023-05-05T22:29:31.123Z,46.9
2023-05-05T22:35:36.737Z,46.9
2023-05-05T22:41:41.713Z,46.9
2023-05-05T22:47:47.634Z,47
2023-05-05T22:53:53.102Z,46.7
2023-05-05T22:59:58.773Z,47
2023-05-05T23:06:04.329Z,46.7
2023-05-05T23:12:09.916Z,46.7
2023-05-05T23:18:15.696Z,46.7
2023-05-05T23:24:21.485Z,46.8
2023-05-05T23:30:27.115Z,46.6
2023-05-05T23:36:32.625Z,46.5
2023-05-05T23:42:38.409Z,46.5
2023-05-05T23:48:44.397Z,46.6
2023-05-05T23:54:49.978Z,46.5
